createdAt,value
2022-10-02T00:03:48.542Z,97
2022-10-02T00:08:47.755Z,97
2022-10-02T00:13:47.784Z,97
2022-10-02T00:18:47.798Z,97
2022-10-02T00:23:48.298Z,97
2022-10-02T00:28:48.349Z,97
2022-10-02T00:33:48.362Z,97
2022-10-02T00:38:48.340Z,97
2022-10-02T00:43:48.367Z,97
2022-10-02T00:48:48.355Z,97
2022-10-02T00:53:48.621Z,97
2022-10-02T00:58:48.688Z,97
2022-10-02T01:03:47.832Z,98
2022-10-02T01:08:48.067Z,98
2022-10-02T01:13:48.281Z,98
2022-10-02T01:18:47.828Z,98
2022-10-02T01:23:47.822Z,98
2022-10-02T01:28:47.889Z,98
2022-10-02T01:33:48.617Z,98
2022-10-02T01:38:48.992Z,98
2022-10-02T01:43:48.068Z,98
2022-10-02T01:48:48.045Z,98
2022-10-02T01:53:48.066Z,98
2022-10-02T01:58:48.158Z,98
2022-10-02T02:03:48.343Z,98
2022-10-02T02:08:48.611Z,98
2022-10-02T02:13:47.798Z,98
2022-10-02T02:18:48.071Z,98
2022-10-02T02:23:48.169Z,98
2022-10-02T02:28:48.189Z,98
2022-10-02T02:33:48.476Z,98
2022-10-02T02:38:48.714Z,98
2022-10-02T02:43:48.050Z,98
2022-10-02T02:48:48.462Z,98
2022-10-02T02:53:48.491Z,98
2022-10-02T02:58:48.327Z,98
2022-10-02T03:03:48.728Z,98
2022-10-02T03:08:49.986Z,98
2022-10-02T03:13:48.304Z,98
2022-10-02T03:18:48.610Z,98
2022-10-02T03:23:47.900Z,98
2022-10-02T03:28:55.857Z,98
2022-10-02T03:33:47.790Z,98
2022-10-02T03:39:00.714Z,98
2022-10-02T03:43:48.603Z,98
2022-10-02T03:48:48.031Z,98
2022-10-02T03:53:48.647Z,98
2022-10-02T03:58:47.949Z,98
2022-10-02T04:03:48.201Z,98
2022-10-02T04:08:48.392Z,98
2022-10-02T04:13:48.220Z,98
2022-10-02T04:18:48.436Z,98
2022-10-02T04:23:48.372Z,98
2022-10-02T04:28:48.523Z,98
2022-10-02T04:33:48.550Z,98
2022-10-02T04:38:48.468Z,98
2022-10-02T04:43:48.704Z,98
2022-10-02T04:48:47.983Z,98
2022-10-02T04:53:48.507Z,98
2022-10-02T04:58:48.081Z,98
2022-10-02T05:03:48.407Z,98
2022-10-02T05:08:48.679Z,98
2022-10-02T05:13:48.014Z,98
2022-10-02T05:18:48.092Z,98
2022-10-02T05:23:48.404Z,98
2022-10-02T05:28:48.669Z,98
2022-10-02T05:33:48.483Z,98
2022-10-02T05:38:48.896Z,98
2022-10-02T05:43:48.077Z,98
2022-10-02T05:48:48.335Z,98
2022-10-02T05:53:48.468Z,98
2022-10-02T05:58:48.598Z,98
2022-10-02T06:03:48.804Z,98
2022-10-02T06:08:47.978Z,98
2022-10-02T06:13:48.211Z,98
2022-10-02T06:18:48.352Z,98
2022-10-02T06:23:48.536Z,98
2022-10-02T06:28:48.741Z,98
2022-10-02T06:33:48.817Z,99
2022-10-02T06:38:48.099Z,99
2022-10-02T06:43:48.221Z,99
2022-10-02T06:48:48.384Z,99
2022-10-02T06:53:48.505Z,99
2022-10-02T06:58:48.633Z,99
2022-10-02T07:03:48.037Z,99
2022-10-02T07:08:48.296Z,99
2022-10-02T07:13:48.358Z,99
2022-10-02T07:18:48.439Z,99
2022-10-02T07:23:48.698Z,99
2022-10-02T07:28:47.897Z,99
2022-10-02T07:33:47.939Z,99
2022-10-02T07:38:47.966Z,99
2022-10-02T07:43:47.990Z,99
2022-10-02T07:48:48.131Z,99
2022-10-02T07:53:48.234Z,99
2022-10-02T07:58:48.406Z,99
2022-10-02T08:03:48.487Z,99
2022-10-02T08:08:48.693Z,99
2022-10-02T08:13:48.748Z,99
2022-10-02T08:18:48.906Z,99
2022-10-02T08:23:48.960Z,99
2022-10-02T08:28:48.179Z,99
2022-10-02T08:33:48.279Z,99
2022-10-02T08:38:52.584Z,99
2022-10-02T08:43:48.164Z,99
2022-10-02T08:48:48.309Z,99
2022-10-02T08:53:48.825Z,99
2022-10-02T08:58:48.276Z,99
2022-10-02T09:03:48.628Z,99
2022-10-02T09:08:48.937Z,99
2022-10-02T09:13:48.254Z,99
2022-10-02T09:18:48.529Z,99
2022-10-02T09:23:48.825Z,100
2022-10-02T09:28:48.283Z,100
2022-10-02T09:33:48.423Z,100
2022-10-02T09:38:48.846Z,100
2022-10-02T09:43:48.264Z,99
2022-10-02T09:48:48.446Z,99
2022-10-02T09:53:48.830Z,100
2022-10-02T09:58:48.882Z,100
2022-10-02T10:03:48.043Z,100
2022-10-02T10:08:48.154Z,100
2022-10-02T10:13:48.358Z,98
2022-10-02T10:18:48.475Z,98
2022-10-02T10:23:48.538Z,97
2022-10-02T10:28:48.694Z,97
2022-10-02T10:33:48.891Z,95
2022-10-02T10:38:48.148Z,95
2022-10-02T10:43:48.350Z,92
2022-10-02T10:48:49.718Z,92
2022-10-02T10:53:48.082Z,92
2022-10-02T10:58:48.287Z,92
2022-10-02T11:03:48.786Z,91
2022-10-02T11:08:48.976Z,91
2022-10-02T11:13:48.148Z,90
2022-10-02T11:18:48.284Z,90
2022-10-02T11:23:48.472Z,89
2022-10-02T11:28:48.634Z,89
2022-10-02T11:33:48.847Z,90
2022-10-02T11:38:49.063Z,90
2022-10-02T11:43:48.175Z,91
2022-10-02T11:48:48.338Z,91
2022-10-02T11:53:48.463Z,91
2022-10-02T11:58:48.634Z,91
2022-10-02T12:03:48.711Z,93
2022-10-02T12:08:48.772Z,93
2022-10-02T12:13:48.931Z,94
2022-10-02T12:18:48.176Z,94
2022-10-02T12:23:48.242Z,93
2022-10-02T12:28:48.553Z,93
2022-10-02T12:33:51.751Z,92
2022-10-02T12:38:49.107Z,92
2022-10-02T12:43:48.277Z,91
2022-10-02T12:48:48.491Z,91
2022-10-02T12:53:48.725Z,90
2022-10-02T12:58:48.997Z,90
2022-10-02T13:03:48.230Z,89
2022-10-02T13:08:48.554Z,89
2022-10-02T13:13:48.797Z,87
2022-10-02T13:18:48.231Z,87
2022-10-02T13:23:48.381Z,87
2022-10-02T13:28:48.668Z,87
2022-10-02T13:33:48.568Z,86
2022-10-02T13:38:48.771Z,86
2022-10-02T13:43:48.162Z,85
2022-10-02T13:48:48.553Z,85
2022-10-02T13:53:48.852Z,83
2022-10-02T13:58:49.149Z,83
2022-10-02T14:03:48.278Z,81
2022-10-02T14:08:48.524Z,81
2022-10-02T14:13:48.657Z,79
2022-10-02T14:18:48.729Z,79
2022-10-02T14:23:48.797Z,77
2022-10-02T14:28:48.995Z,77
2022-10-02T14:33:48.168Z,76
2022-10-02T14:38:48.644Z,76
2022-10-02T14:43:49.012Z,76
2022-10-02T14:48:48.271Z,76
2022-10-02T14:53:48.545Z,75
2022-10-02T14:58:48.446Z,75
2022-10-02T15:03:49.112Z,76
2022-10-02T15:08:48.957Z,76
2022-10-02T15:13:48.491Z,77
2022-10-02T15:18:48.941Z,77
2022-10-02T15:23:48.330Z,78
2022-10-02T15:28:48.802Z,78
2022-10-02T15:33:49.170Z,79
2022-10-02T15:38:48.449Z,79
2022-10-02T15:43:48.617Z,81
2022-10-02T15:48:52.383Z,81
2022-10-02T15:53:49.139Z,81
2022-10-02T15:58:48.299Z,81
2022-10-02T16:03:48.421Z,82
2022-10-02T16:08:48.926Z,82
2022-10-02T16:13:48.361Z,83
2022-10-02T16:18:48.480Z,83
2022-10-02T16:23:49.019Z,84
2022-10-02T16:28:49.232Z,84
2022-10-02T16:33:48.671Z,84
2022-10-02T16:38:48.884Z,84
2022-10-02T16:43:48.999Z,85
2022-10-02T16:48:49.150Z,85
2022-10-02T16:53:48.334Z,85
2022-10-02T16:58:48.548Z,85
2022-10-02T17:03:48.783Z,86
2022-10-02T17:08:48.932Z,86
2022-10-02T17:13:48.501Z,87
2022-10-02T17:18:48.660Z,87
2022-10-02T17:23:48.858Z,87
2022-10-02T17:28:49.058Z,87
2022-10-02T17:33:49.201Z,88
2022-10-02T17:38:48.420Z,88
2022-10-02T17:43:48.765Z,88
2022-10-02T17:48:48.881Z,88
2022-10-02T17:53:49.031Z,89
2022-10-02T17:58:49.231Z,89
2022-10-02T18:03:48.375Z,89
2022-10-02T18:08:48.437Z,89
2022-10-02T18:13:48.774Z,90
2022-10-02T18:18:48.933Z,90
2022-10-02T18:23:49.182Z,90
2022-10-02T18:28:48.269Z,90
2022-10-02T18:33:48.351Z,91
2022-10-02T18:38:48.395Z,91
2022-10-02T18:43:48.773Z,91
2022-10-02T18:48:48.898Z,91
2022-10-02T18:53:48.945Z,91
2022-10-02T18:58:49.033Z,91
2022-10-02T19:03:49.115Z,91
2022-10-02T19:08:49.335Z,91
2022-10-02T19:13:48.370Z,92
2022-10-02T19:18:48.585Z,92
2022-10-02T19:23:48.631Z,92
2022-10-02T19:28:49.046Z,92
2022-10-02T19:33:49.158Z,92
2022-10-02T19:38:49.282Z,92
2022-10-02T19:43:48.420Z,92
2022-10-02T19:48:48.556Z,92
2022-10-02T19:53:48.696Z,93
2022-10-02T19:58:48.810Z,93
2022-10-02T20:03:49.132Z,93
2022-10-02T20:08:49.309Z,93
2022-10-02T20:13:48.472Z,93
2022-10-02T20:18:48.566Z,93
2022-10-02T20:23:48.772Z,94
2022-10-02T20:28:48.978Z,94
2022-10-02T20:33:49.084Z,94
2022-10-02T20:38:49.445Z,94
2022-10-02T20:43:48.835Z,94
2022-10-02T20:49:07.371Z,94
2022-10-02T20:53:48.523Z,94
2022-10-02T20:58:49.252Z,94
2022-10-02T21:03:48.510Z,94
2022-10-02T21:08:48.658Z,94
2022-10-02T21:13:49.123Z,94
2022-10-02T21:18:49.139Z,94
2022-10-02T21:23:48.533Z,94
2022-10-02T21:28:48.869Z,94
2022-10-02T21:33:49.139Z,95
2022-10-02T21:38:49.364Z,95
2022-10-02T21:43:48.494Z,95
2022-10-02T21:48:48.714Z,95
2022-10-02T21:53:48.832Z,95
2022-10-02T21:58:49.073Z,95
2022-10-02T22:03:49.446Z,95
2022-10-02T22:08:48.759Z,95
2022-10-02T22:13:48.713Z,95
2022-10-02T22:18:49.299Z,95
2022-10-02T22:23:48.607Z,95
2022-10-02T22:28:49.182Z,95
2022-10-02T22:33:48.587Z,95
2022-10-02T22:38:48.878Z,95
2022-10-02T22:43:48.871Z,95
2022-10-02T22:48:48.983Z,95
2022-10-02T22:53:49.165Z,96
2022-10-02T22:58:49.384Z,96
2022-10-02T23:03:48.459Z,96
2022-10-02T23:08:49.229Z,96
2022-10-02T23:13:48.702Z,96
2022-10-02T23:18:48.869Z,96
2022-10-02T23:23:49.146Z,96
2022-10-02T23:28:49.240Z,96
2022-10-02T23:33:48.628Z,96
2022-10-02T23:38:48.811Z,96
2022-10-02T23:43:48.846Z,96
2022-10-02T23:48:48.846Z,96
2022-10-02T23:53:49.134Z,97
2022-10-02T23:58:49.184Z,97
